Welcome to Des Moines Iowa Weather. I am an independent private personal weather station on the Northwest Side of Des Moines, Iowa. Just East of Windsor Heights and just West of Glendale . This site is also mobile friendly.

There are no active watches, warnings or advisories


Visit our other weather sites:

Historical Data

Weather Station Setup



Weather Underground History page Text

Daily Summary for February 7, 2018 Units:  English    Metric   Both
« Previous Day
Next Day »
Daily Weekly Monthly Yearly Custom
  High: Low: Average:
Temperature: 17.1 °F 9.1 °F 12.3 °F
Dew Point: 9.0 °F 6.0 °F 7 °F
Humidity: 86 % 67 % 79 %
Wind Speed: 6.0 mph 0.0 mph 1 mph
Wind Gust: 10.0 mph - -
Wind:- - North
Pressure: 30.53 in 30.41 in -
Precipitation: 0.00 in    
Historical Graphs
 
 
Tabular Data for February 7, 2018
Time Temperature Dew Point Pressure Wind Wind Speed Wind Gust Humidity Rainfall Rate (Hourly)
00:00 9.4 °F 6.0 °F 30.43 in Calm     86 % 0.00 in
00:15 9.4 °F 6.0 °F 30.42 in Calm     86 % 0.00 in
00:30 9.4 °F 6.0 °F 30.43 in Calm     86 % 0.00 in
00:45 9.4 °F 6.0 °F 30.43 in Calm     86 % 0.00 in
01:00 9.4 °F 6.0 °F 30.42 in Calm     86 % 0.00 in
01:15 9.5 °F 6.0 °F 30.42 in Calm   1.0 mph 86 % 0.00 in
01:30 9.4 °F 6.0 °F 30.42 in Calm   2.0 mph 86 % 0.00 in
01:45 9.4 °F 6.0 °F 30.42 in Calm     86 % 0.00 in
02:00 9.4 °F 6.0 °F 30.42 in Calm   1.0 mph 86 % 0.00 in
02:15 9.5 °F 6.0 °F 30.42 in Calm   1.0 mph 86 % 0.00 in
02:36 9.5 °F 6.0 °F 30.41 in ENE 2.0 mph 3.0 mph 86 % 0.00 in
02:45 9.5 °F 6.0 °F 30.42 in Calm   1.0 mph 86 % 0.00 in
03:00 9.5 °F 6.0 °F 30.43 in Calm   2.0 mph 86 % 0.00 in
03:21 9.6 °F 6.0 °F 30.43 in Calm   2.0 mph 86 % 0.00 in
03:30 9.8 °F 7.0 °F 30.42 in Calm   2.0 mph 86 % 0.00 in
03:45 10.0 °F 7.0 °F 30.42 in Calm   2.0 mph 86 % 0.00 in
04:00 10.2 °F 7.0 °F 30.41 in Calm   4.0 mph 86 % 0.00 in
04:15 10.3 °F 7.0 °F 30.41 in Calm   1.0 mph 86 % 0.00 in
04:30 10.4 °F 7.0 °F 30.42 in Calm   4.0 mph 86 % 0.00 in
04:45 10.4 °F 7.0 °F 30.42 in Calm   2.0 mph 86 % 0.00 in
05:00 10.1 °F 7.0 °F 30.43 in Calm   2.0 mph 85 % 0.00 in
05:15 9.6 °F 6.0 °F 30.43 in Calm   4.0 mph 85 % 0.00 in
05:31 9.2 °F 6.0 °F 30.43 in Calm   3.0 mph 85 % 0.00 in
05:46 9.1 °F 6.0 °F 30.44 in Calm   2.0 mph 85 % 0.00 in
06:01 9.3 °F 6.0 °F 30.44 in Calm   3.0 mph 86 % 0.00 in
06:16 9.6 °F 6.0 °F 30.44 in Calm   3.0 mph 86 % 0.00 in
06:31 9.5 °F 6.0 °F 30.45 in Calm   4.0 mph 85 % 0.00 in
06:47 9.4 °F 6.0 °F 30.45 in North 2.0 mph 3.0 mph 86 % 0.00 in
07:01 9.6 °F 6.0 °F 30.45 in North 1.0 mph 4.0 mph 86 % 0.00 in
07:16 9.8 °F 7.0 °F 30.45 in Calm   3.0 mph 86 % 0.00 in
07:31 10.1 °F 7.0 °F 30.46 in Calm   4.0 mph 86 % 0.00 in
07:46 10.2 °F 7.0 °F 30.47 in Calm   2.0 mph 85 % 0.00 in
08:01 9.9 °F 6.0 °F 30.48 in North 2.0 mph 3.0 mph 85 % 0.00 in
08:16 9.6 °F 6.0 °F 30.48 in North 3.0 mph 6.0 mph 85 % 0.00 in
08:31 9.9 °F 6.0 °F 30.49 in North 6.0 mph 9.0 mph 85 % 0.00 in
08:46 10.5 °F 7.0 °F 30.50 in North 4.0 mph 6.0 mph 85 % 0.00 in
09:01 11.2 °F 7.0 °F 30.50 in North 4.0 mph 9.0 mph 84 % 0.00 in
09:16 11.7 °F 8.0 °F 30.51 in North 3.0 mph 9.0 mph 83 % 0.00 in
09:31 11.8 °F 7.0 °F 30.52 in North 5.0 mph 10.0 mph 82 % 0.00 in
09:46 12.1 °F 7.0 °F 30.52 in North 4.0 mph 9.0 mph 81 % 0.00 in
10:01 12.6 °F 8.0 °F 30.52 in North 2.0 mph 6.0 mph 81 % 0.00 in
10:16 13.1 °F 8.0 °F 30.52 in Calm   8.0 mph 80 % 0.00 in
10:31 13.3 °F 8.0 °F 30.53 in NNE 6.0 mph 9.0 mph 78 % 0.00 in
10:46 13.3 °F 8.0 °F 30.53 in North 2.0 mph 9.0 mph 78 % 0.00 in
11:01 13.6 °F 8.0 °F 30.53 in North 4.0 mph 10.0 mph 78 % 0.00 in
11:16 14.2 °F 9.0 °F 30.53 in North 1.0 mph 6.0 mph 78 % 0.00 in
11:31 14.4 °F 8.0 °F 30.53 in North 2.0 mph 6.0 mph 77 % 0.00 in
11:47 14.9 °F 9.0 °F 30.53 in North 2.0 mph 5.0 mph 77 % 0.00 in
12:02 15.5 °F 9.0 °F 30.53 in North 2.0 mph 5.0 mph 75 % 0.00 in
12:17 16.1 °F 9.0 °F 30.52 in North 2.0 mph 5.0 mph 74 % 0.00 in
12:32 16.2 °F 8.0 °F 30.52 in North 3.0 mph 8.0 mph 71 % 0.00 in
12:47 17.0 °F 9.0 °F 30.52 in North 1.0 mph 6.0 mph 70 % 0.00 in
13:02 17.1 °F 8.0 °F 30.52 in North 2.0 mph 6.0 mph 68 % 0.00 in
13:17 16.8 °F 8.0 °F 30.51 in North 2.0 mph 8.0 mph 67 % 0.00 in
13:32 17.1 °F 8.0 °F 30.51 in North 3.0 mph 6.0 mph 67 % 0.00 in
13:47 17.0 °F 8.0 °F 30.50 in North 3.0 mph 6.0 mph 67 % 0.00 in
14:02 16.7 °F 7.0 °F 30.50 in Calm   8.0 mph 67 % 0.00 in
14:17 16.7 °F 7.0 °F 30.50 in North 4.0 mph 8.0 mph 67 % 0.00 in
14:32 16.9 °F 8.0 °F 30.51 in North 3.0 mph 5.0 mph 67 % 0.00 in
14:49 15.6 °F 7.0 °F 30.50 in North 1.0 mph 6.0 mph 68 % 0.00 in
15:02 15.0 °F 7.0 °F 30.51 in North 1.0 mph 6.0 mph 70 % 0.00 in
15:21 15.0 °F 7.0 °F 30.51 in North 2.0 mph 8.0 mph 71 % 0.00 in
15:34 15.7 °F 8.0 °F 30.51 in North 3.0 mph 9.0 mph 70 % 0.00 in
15:47 15.9 °F 7.0 °F 30.52 in North 2.0 mph 5.0 mph 69 % 0.00 in
16:02 15.5 °F 7.0 °F 30.52 in Calm   6.0 mph 69 % 0.00 in
16:17 14.6 °F 6.0 °F 30.52 in North 4.0 mph 5.0 mph 70 % 0.00 in
16:32 14.0 °F 6.0 °F 30.52 in North 2.0 mph 4.0 mph 71 % 0.00 in
16:47 13.6 °F 6.0 °F 30.52 in North 2.0 mph 4.0 mph 72 % 0.00 in
17:02 13.3 °F 6.0 °F 30.51 in Calm   4.0 mph 73 % 0.00 in
17:17 13.1 °F 6.0 °F 30.52 in Calm   3.0 mph 74 % 0.00 in
17:32 12.9 °F 6.0 °F 30.51 in Calm   3.0 mph 74 % 0.00 in
17:47 12.6 °F 6.0 °F 30.51 in North 1.0 mph 2.0 mph 74 % 0.00 in
18:02 12.3 °F 6.0 °F 30.51 in Calm   2.0 mph 75 % 0.00 in
18:17 12.1 °F 6.0 °F 30.52 in Calm   2.0 mph 76 % 0.00 in
18:32 12.0 °F 6.0 °F 30.51 in Calm     76 % 0.00 in
18:47 12.0 °F 6.0 °F 30.51 in Calm     77 % 0.00 in
19:02 12.0 °F 6.0 °F 30.50 in Calm     77 % 0.00 in
19:17 12.0 °F 6.0 °F 30.51 in Calm     77 % 0.00 in
19:32 12.0 °F 6.0 °F 30.51 in Calm   1.0 mph 78 % 0.00 in
19:47 12.1 °F 7.0 °F 30.51 in Calm     78 % 0.00 in
20:02 12.2 °F 7.0 °F 30.51 in Calm     78 % 0.00 in
20:17 12.3 °F 7.0 °F 30.50 in Calm     78 % 0.00 in
20:32 12.3 °F 7.0 °F 30.50 in Calm     78 % 0.00 in
20:47 12.4 °F 7.0 °F 30.50 in Calm     78 % 0.00 in
21:02 12.6 °F 7.0 °F 30.50 in Calm   1.0 mph 79 % 0.00 in
21:17 12.8 °F 7.0 °F 30.51 in Calm     79 % 0.00 in
21:32 13.1 °F 8.0 °F 30.51 in Calm     79 % 0.00 in
21:47 13.3 °F 8.0 °F 30.51 in Calm     80 % 0.00 in
22:02 13.4 °F 8.0 °F 30.51 in Calm     80 % 0.00 in
22:17 13.6 °F 9.0 °F 30.51 in Calm     80 % 0.00 in
22:32 13.6 °F 9.0 °F 30.51 in Calm     81 % 0.00 in
22:47 13.7 °F 9.0 °F 30.50 in Calm     81 % 0.00 in
23:02 13.7 °F 9.0 °F 30.50 in Calm     82 % 0.00 in
23:17 13.6 °F 9.0 °F 30.49 in Calm     83 % 0.00 in
23:32 13.5 °F 9.0 °F 30.48 in Calm     83 % 0.00 in
23:47 13.3 °F 9.0 °F 30.48 in Calm     84 % 0.00 in
Des Moines Weather and Climate
Compliments of Weather Underground - 3 mb

Script developed by  Jim McMurry - jmcmurry@mwt.net Adapted for the template by  Wim van der Kuil - Leuven-Template.eu

You find our weather info also at:

Weather Underground

Equipment we use:

Weather-station
Davis VP2 Plus

Weather-program
Davis Weatherlink.Com

Weather-server
iMac (Retina 4K, 21.5-inch, Late 2015)

Provider
Hostmonster.com

Davis VP2 Plus

Davis Weatherlink.Com

iMac (Retina 4K, 21.5-inch, Late 2015)

Hostmonster.com